Fort Smith Regional Airport
KFSM : now visible

Airfield :











YOU CAN JOIN US ON...

 
LOGIN :

Register | Disclaimer

   EN    FR    IT 

 









Legend :    VFR   Marginal VFR   IFR   Intensive IFR   Very Intensive IFR
Visi :
Ceiling :
>= 8 km
>= 3000ft
5 to 8 km
1000 to 3000 ft
1500m to 5 km
500 to 1000 ft
800 to 1500m
200 to 500 ft
< 800m
< 200 ft
Symbols :   Thunderstorms  Fog  Heavy snow  Heavy precipitations  Wind > 20 kt






- Airport Elevation : 469 ft
- IATA code : FSM


KFSM - Fort Smith Regional

CURRENT METAR :
  • 202353Z 13009KT 10SM FEW047 19/10 A2997 RMK AO2 SLP149 T01940100 10222 20189 51017

EXPIRED METARs :
  • 202253Z 14010KT 10SM CLR 21/11 A2996 RMK AO2 SLP144 T02060111
  • 202153Z 12010G15KT 10SM CLR 21/13 A2994 RMK AO2 SLP135 T02110128

TAF KFSM
Valid from the 21 at 00:00 until the 22 at 00:00 UTC


202331Z 2100/2124 14010KT P6SM VCSH BKN120
FM210100 11007KT P6SM OVC050
TEMPO 2105/2109 3SM -TSRA BKN015CB
FM210900 15010KT P6SM VCSH OVC015
FM212000 19008KT 4SM -DZ BR OVC007



MET'MAP, your aeronautical weather chart ! - Copyright ORBIFLY December 2007 - Disclaimer

ORBIFLY MET'MAP TEAM :

Programming & Development : Alexandra Zaïnal
Concept & Development : Baudouin d'Aumeries
Co-Development & Prog : Marc-Olivier Méhu
Technical & hardware support : Manuel Goepfert

Contact : metmap@orbifly.com




SOURCES & CREDITS :

   NOAA       Earth
Advisory